createdAt,value
2017-12-04T00:01:15.631Z,6.25
2017-12-04T00:03:41.597Z,6.25
2017-12-04T00:06:07.557Z,6.31
2017-12-04T00:08:33.499Z,6.31
2017-12-04T00:10:59.428Z,6.30
2017-12-04T00:13:25.383Z,6.36
2017-12-04T00:15:51.335Z,6.49
2017-12-04T00:18:17.290Z,6.50
2017-12-04T00:20:43.215Z,6.54
2017-12-04T00:23:09.163Z,6.52
2017-12-04T00:25:35.110Z,6.67
2017-12-04T00:28:01.065Z,6.52
2017-12-04T00:30:26.986Z,6.70
2017-12-04T00:32:52.903Z,6.54
2017-12-04T00:35:18.845Z,6.41
2017-12-04T00:37:44.771Z,6.60
2017-12-04T00:40:10.719Z,6.74
2017-12-04T00:42:36.666Z,6.67
2017-12-04T00:45:02.611Z,6.70
2017-12-04T00:47:28.539Z,6.67
2017-12-04T00:49:54.476Z,6.76
2017-12-04T00:52:20.415Z,6.63
2017-12-04T00:54:46.347Z,6.68
2017-12-04T00:57:12.288Z,6.62
2017-12-04T00:59:38.223Z,6.65
2017-12-04T01:02:04.153Z,6.44
2017-12-04T01:04:30.080Z,6.33
2017-12-04T01:06:56.012Z,6.32
2017-12-04T01:09:21.988Z,6.45
2017-12-04T01:11:47.926Z,6.36
2017-12-04T01:14:13.859Z,6.30
2017-12-04T01:16:39.801Z,6.45
2017-12-04T01:19:05.734Z,6.63
2017-12-04T01:21:31.680Z,6.60
2017-12-04T01:23:57.607Z,6.59
2017-12-04T01:26:23.546Z,6.70
2017-12-04T01:28:49.610Z,6.74
2017-12-04T01:31:15.542Z,6.71
2017-12-04T01:33:41.480Z,6.41
2017-12-04T01:36:07.415Z,6.57
2017-12-04T01:38:33.351Z,6.66
2017-12-04T01:40:59.297Z,6.66
2017-12-04T01:43:25.231Z,6.79
2017-12-04T01:45:51.172Z,6.82
2017-12-04T01:48:17.108Z,6.76
2017-12-04T01:50:43.034Z,6.73
2017-12-04T01:53:08.972Z,6.46
2017-12-04T01:55:34.930Z,6.76
2017-12-04T01:58:00.862Z,6.75
2017-12-04T02:00:26.790Z,6.75
2017-12-04T02:02:52.708Z,6.81
2017-12-04T02:05:18.651Z,6.82
2017-12-04T02:07:44.594Z,6.75
2017-12-04T02:10:10.573Z,6.87
2017-12-04T02:12:36.520Z,6.95
2017-12-04T02:15:02.463Z,6.85
2017-12-04T02:17:28.386Z,6.90
2017-12-04T02:19:54.324Z,6.84
2017-12-04T02:22:20.264Z,6.72
2017-12-04T02:24:46.248Z,6.82
2017-12-04T02:27:12.246Z,6.57
2017-12-04T02:29:38.166Z,6.73
2017-12-04T02:32:04.135Z,6.76
2017-12-04T02:34:30.070Z,6.76
2017-12-04T02:36:56.058Z,6.78
2017-12-04T02:39:21.997Z,6.54
2017-12-04T02:41:47.934Z,6.79
2017-12-04T02:44:13.870Z,6.95
2017-12-04T02:46:39.792Z,6.77
2017-12-04T02:49:05.731Z,6.98
2017-12-04T02:51:32.575Z,6.95
2017-12-04T02:53:58.527Z,6.83
2017-12-04T02:56:24.463Z,6.93
2017-12-04T02:58:50.388Z,6.95
2017-12-04T03:01:16.337Z,6.83
2017-12-04T03:03:42.278Z,6.90
2017-12-04T03:06:08.206Z,7.01
2017-12-04T03:08:34.145Z,7.08
2017-12-04T03:11:00.092Z,7.09
2017-12-04T03:13:26.091Z,7.06
2017-12-04T03:15:52.031Z,6.99
2017-12-04T03:18:17.979Z,7.11
2017-12-04T03:20:43.907Z,7.08
2017-12-04T03:23:09.835Z,7.03
2017-12-04T03:25:35.782Z,6.97
2017-12-04T03:28:01.727Z,6.84
2017-12-04T03:30:27.663Z,6.85
2017-12-04T03:32:53.593Z,6.99
2017-12-04T03:35:19.519Z,6.94
2017-12-04T03:37:45.476Z,6.93
2017-12-04T03:40:11.432Z,6.81
2017-12-04T03:42:37.386Z,6.87
2017-12-04T03:45:03.318Z,6.89
2017-12-04T03:47:29.251Z,7.08
2017-12-04T03:49:55.215Z,7.02
2017-12-04T03:52:21.148Z,6.78
2017-12-04T03:54:47.104Z,7.06
2017-12-04T03:57:13.045Z,6.82
2017-12-04T03:59:38.978Z,6.79
2017-12-04T04:02:04.907Z,6.98
2017-12-04T04:04:30.847Z,7.02
2017-12-04T04:06:56.782Z,6.88
2017-12-04T04:09:22.709Z,6.88
2017-12-04T04:11:48.663Z,6.85
2017-12-04T04:14:14.594Z,6.99
2017-12-04T04:16:41.116Z,6.95
2017-12-04T04:19:07.058Z,6.97
2017-12-04T04:21:32.998Z,6.70
2017-12-04T04:23:58.935Z,6.89
2017-12-04T04:26:24.911Z,7.08
2017-12-04T04:28:50.954Z,7.03
2017-12-04T04:31:17.199Z,6.87
2017-12-04T04:33:43.137Z,6.95
2017-12-04T04:36:09.073Z,7.04
2017-12-04T04:38:35.023Z,6.97
2017-12-04T04:41:00.940Z,7.02
2017-12-04T04:43:26.923Z,7.07
2017-12-04T04:45:52.850Z,6.95
2017-12-04T04:48:18.802Z,6.89
2017-12-04T04:50:44.747Z,6.90
2017-12-04T04:53:10.715Z,6.95
2017-12-04T04:55:36.639Z,7.14
2017-12-04T04:58:02.579Z,7.09
2017-12-04T05:00:28.556Z,6.89
2017-12-04T05:02:54.511Z,6.89
2017-12-04T05:05:20.476Z,7.11
2017-12-04T05:07:46.457Z,7.06
2017-12-04T05:10:12.471Z,7.22
2017-12-04T05:12:38.459Z,7.17
2017-12-04T05:15:04.432Z,7.21
2017-12-04T05:17:30.375Z,7.44
2017-12-04T05:19:56.338Z,7.31
2017-12-04T05:22:22.288Z,7.21
2017-12-04T05:24:48.220Z,7.34
2017-12-04T05:27:14.743Z,7.46
2017-12-04T05:29:40.675Z,7.44
2017-12-04T05:32:06.603Z,7.62
2017-12-04T05:34:32.576Z,7.57
2017-12-04T05:36:58.513Z,7.47
2017-12-04T05:39:24.449Z,7.49
2017-12-04T05:41:50.386Z,7.52
2017-12-04T05:44:16.337Z,7.38
2017-12-04T05:46:42.283Z,7.53
2017-12-04T05:49:08.343Z,7.67
2017-12-04T05:51:34.321Z,7.64
2017-12-04T05:54:00.278Z,7.45
2017-12-04T05:56:26.259Z,7.23
2017-12-04T05:58:52.194Z,7.40
2017-12-04T06:01:18.135Z,7.57
2017-12-04T06:03:44.087Z,7.65
2017-12-04T06:06:10.007Z,7.71
2017-12-04T06:08:35.939Z,7.75
2017-12-04T06:11:01.866Z,7.63
2017-12-04T06:13:27.826Z,7.76
2017-12-04T06:15:53.785Z,7.66
2017-12-04T06:18:19.723Z,7.62
2017-12-04T06:20:45.667Z,7.79
2017-12-04T06:23:11.595Z,7.67
2017-12-04T06:25:37.524Z,7.56
2017-12-04T06:28:03.479Z,7.64
2017-12-04T06:30:29.411Z,7.67
2017-12-04T06:32:55.371Z,7.78
2017-12-04T06:35:21.339Z,7.70
2017-12-04T06:37:47.291Z,7.56
2017-12-04T06:40:13.309Z,7.61
2017-12-04T06:42:39.279Z,7.79
2017-12-04T06:45:05.253Z,7.60
2017-12-04T06:47:31.183Z,7.67
2017-12-04T06:49:57.112Z,7.55
2017-12-04T06:52:23.042Z,7.55
2017-12-04T06:54:48.979Z,7.46
2017-12-04T06:57:14.910Z,7.58
2017-12-04T06:59:40.859Z,7.72
2017-12-04T07:02:06.787Z,7.79
2017-12-04T07:04:32.737Z,7.94
2017-12-04T07:06:58.675Z,7.78
2017-12-04T07:09:24.618Z,7.60
2017-12-04T07:11:50.571Z,7.77
2017-12-04T07:14:16.505Z,7.68
2017-12-04T07:16:42.434Z,7.67
2017-12-04T07:19:08.369Z,7.75
2017-12-04T07:21:34.318Z,7.72
2017-12-04T07:24:00.719Z,7.67
2017-12-04T07:26:26.642Z,7.67
2017-12-04T07:28:52.573Z,7.74
2017-12-04T07:31:18.506Z,7.61
2017-12-04T07:33:44.428Z,7.40
2017-12-04T07:36:10.363Z,7.41
2017-12-04T07:38:36.317Z,7.42
2017-12-04T07:41:02.256Z,7.32
2017-12-04T07:43:29.285Z,7.43
2017-12-04T07:45:55.215Z,7.36
2017-12-04T07:48:21.158Z,7.56
2017-12-04T07:50:47.105Z,7.49
2017-12-04T07:53:13.043Z,7.52
2017-12-04T07:55:38.979Z,7.52
2017-12-04T07:58:04.938Z,7.55
2017-12-04T08:00:30.873Z,7.50
2017-12-04T08:02:56.803Z,7.54
2017-12-04T08:05:22.733Z,7.39
2017-12-04T08:07:48.672Z,7.62
2017-12-04T08:10:14.602Z,7.66
2017-12-04T08:12:40.529Z,7.41
2017-12-04T08:15:06.499Z,7.61
2017-12-04T08:17:32.432Z,7.53
2017-12-04T08:19:58.381Z,7.66
2017-12-04T08:22:24.313Z,7.68
2017-12-04T08:24:50.250Z,7.61
2017-12-04T08:27:16.193Z,7.70
2017-12-04T08:29:42.136Z,7.65
2017-12-04T08:32:08.080Z,7.70
2017-12-04T08:34:34.018Z,7.78
2017-12-04T08:36:59.959Z,7.55
2017-12-04T08:39:25.895Z,7.71
2017-12-04T08:41:51.875Z,7.70
2017-12-04T08:44:17.797Z,7.57
2017-12-04T08:46:43.747Z,7.43
2017-12-04T08:49:09.691Z,7.27
2017-12-04T08:51:35.647Z,7.30
2017-12-04T08:54:01.590Z,7.32
2017-12-04T08:56:27.532Z,7.35
2017-12-04T08:58:53.453Z,7.25
2017-12-04T09:01:19.382Z,7.34
2017-12-04T09:03:45.327Z,7.33
2017-12-04T09:06:11.304Z,7.43
2017-12-04T09:08:37.242Z,7.37
2017-12-04T09:11:03.239Z,7.32
2017-12-04T09:13:29.170Z,7.52
2017-12-04T09:15:55.088Z,7.52
2017-12-04T09:18:21.033Z,7.63
2017-12-04T09:20:46.968Z,7.65
2017-12-04T09:23:12.903Z,7.55
2017-12-04T09:25:38.859Z,7.52
2017-12-04T09:28:04.847Z,7.64
2017-12-04T09:30:30.807Z,7.78
2017-12-04T09:32:56.749Z,7.69
2017-12-04T09:35:22.710Z,7.78
2017-12-04T09:37:48.675Z,7.71
2017-12-04T09:40:14.619Z,7.62
2017-12-04T09:42:40.531Z,7.63
2017-12-04T09:45:06.496Z,7.66
2017-12-04T09:47:32.455Z,7.61
2017-12-04T09:49:58.401Z,7.59
2017-12-04T09:52:24.389Z,7.61
2017-12-04T09:54:50.324Z,7.67
2017-12-04T09:57:16.260Z,7.59
2017-12-04T09:59:42.223Z,7.60
2017-12-04T10:02:08.155Z,7.73
2017-12-04T10:04:34.091Z,7.51
2017-12-04T10:07:00.081Z,7.59
2017-12-04T10:09:26.039Z,7.72
2017-12-04T10:11:51.979Z,7.64
2017-12-04T10:14:17.933Z,7.60
2017-12-04T10:16:43.895Z,7.81
2017-12-04T10:19:09.857Z,7.84
2017-12-04T10:21:35.799Z,7.87
2017-12-04T10:24:02.279Z,7.77
2017-12-04T10:26:28.224Z,7.64
2017-12-04T10:28:54.157Z,7.59
2017-12-04T10:31:20.119Z,7.46
2017-12-04T10:33:46.083Z,7.56
2017-12-04T10:36:12.039Z,7.45
2017-12-04T10:38:37.991Z,7.44
2017-12-04T10:41:04.003Z,7.51
2017-12-04T10:43:29.947Z,7.56
2017-12-04T10:45:55.894Z,7.81
2017-12-04T10:48:22.131Z,7.90
2017-12-04T10:50:48.083Z,7.63
2017-12-04T10:53:14.043Z,7.92
2017-12-04T10:55:39.975Z,7.85
2017-12-04T10:58:05.913Z,8.00
2017-12-04T11:00:31.882Z,8.06
2017-12-04T11:02:57.830Z,8.14
2017-12-04T11:05:23.768Z,8.13
2017-12-04T11:07:49.697Z,7.95
2017-12-04T11:10:15.635Z,8.12
2017-12-04T11:12:41.583Z,8.27
2017-12-04T11:15:07.515Z,8.15
2017-12-04T11:17:33.495Z,8.11
2017-12-04T11:19:59.445Z,7.96
2017-12-04T11:22:25.413Z,7.95
2017-12-04T11:24:51.343Z,7.97
2017-12-04T11:27:17.259Z,8.05
2017-12-04T11:29:43.243Z,7.98
2017-12-04T11:32:09.207Z,8.11
2017-12-04T11:34:35.146Z,8.19
2017-12-04T11:37:01.095Z,8.21
2017-12-04T11:39:27.072Z,8.06
2017-12-04T11:41:52.991Z,7.96
2017-12-04T11:44:18.951Z,8.19
2017-12-04T11:46:44.889Z,8.31
2017-12-04T11:49:10.833Z,8.15
2017-12-04T11:51:36.779Z,8.27
2017-12-04T11:54:02.748Z,8.37
2017-12-04T11:56:28.682Z,8.53
2017-12-04T11:58:54.636Z,8.44
2017-12-04T12:01:20.571Z,8.29
2017-12-04T12:03:46.515Z,8.31
2017-12-04T12:06:12.471Z,8.27
2017-12-04T12:08:38.406Z,8.06
2017-12-04T12:11:04.347Z,8.25
2017-12-04T12:13:30.287Z,8.30
2017-12-04T12:15:56.247Z,8.53
2017-12-04T12:18:22.193Z,8.48
2017-12-04T12:20:48.148Z,8.52
2017-12-04T12:23:14.077Z,8.21
2017-12-04T12:25:40.031Z,8.19
2017-12-04T12:28:05.962Z,8.29
2017-12-04T12:30:31.927Z,8.15
2017-12-04T12:32:57.855Z,7.93
2017-12-04T12:35:23.793Z,8.11
2017-12-04T12:37:49.734Z,7.85
2017-12-04T12:40:15.673Z,7.96
2017-12-04T12:42:41.597Z,8.10
2017-12-04T12:45:07.537Z,8.16
2017-12-04T12:47:33.489Z,8.29
2017-12-04T12:49:59.433Z,8.32
2017-12-04T12:52:25.384Z,8.24
2017-12-04T12:54:51.354Z,8.11
2017-12-04T12:57:17.275Z,8.07
2017-12-04T12:59:43.207Z,8.00
2017-12-04T13:02:09.151Z,8.23
2017-12-04T13:04:35.089Z,8.00
2017-12-04T13:07:01.039Z,8.08
2017-12-04T13:09:26.971Z,7.86
2017-12-04T13:11:52.918Z,7.98
2017-12-04T13:14:19.165Z,8.11
2017-12-04T13:16:45.124Z,8.05
2017-12-04T13:19:11.067Z,8.17
2017-12-04T13:21:37.011Z,8.17
2017-12-04T13:24:02.959Z,8.15
2017-12-04T13:26:28.890Z,8.12
2017-12-04T13:28:54.830Z,8.09
2017-12-04T13:31:20.821Z,8.10
2017-12-04T13:33:46.763Z,8.10
2017-12-04T13:36:12.711Z,7.96
2017-12-04T13:38:38.671Z,8.00
2017-12-04T13:41:04.607Z,7.96
2017-12-04T13:43:30.539Z,8.04
2017-12-04T13:45:56.475Z,8.05
2017-12-04T13:48:22.449Z,8.07
2017-12-04T13:50:48.399Z,8.24
2017-12-04T13:53:14.347Z,8.23
2017-12-04T13:55:40.299Z,8.20
2017-12-04T13:58:06.265Z,8.20
2017-12-04T14:00:32.205Z,8.12
2017-12-04T14:02:58.157Z,8.13
2017-12-04T14:05:24.113Z,8.25
2017-12-04T14:07:50.087Z,7.73
2017-12-04T14:10:16.039Z,7.48
2017-12-04T14:12:41.962Z,7.67
2017-12-04T14:15:07.899Z,7.60
2017-12-04T14:17:33.831Z,7.53
2017-12-04T14:19:59.797Z,7.60
2017-12-04T14:22:25.745Z,7.71
2017-12-04T14:24:51.675Z,7.59
2017-12-04T14:27:17.608Z,7.54
2017-12-04T14:29:43.579Z,7.47
2017-12-04T14:32:09.557Z,7.60
2017-12-04T14:34:35.503Z,7.45
2017-12-04T14:37:01.471Z,7.52
2017-12-04T14:39:27.419Z,7.44
2017-12-04T14:41:53.343Z,7.56
2017-12-04T14:44:19.284Z,7.32
2017-12-04T14:46:45.249Z,7.38
2017-12-04T14:49:11.187Z,7.34
2017-12-04T14:51:37.124Z,7.34
2017-12-04T14:54:03.046Z,7.36
2017-12-04T14:56:28.972Z,7.35
2017-12-04T14:58:55.048Z,7.34
2017-12-04T15:01:21.011Z,7.40
2017-12-04T15:03:46.951Z,7.45
2017-12-04T15:06:12.895Z,7.36
2017-12-04T15:08:38.820Z,7.51
2017-12-04T15:11:04.773Z,7.42
2017-12-04T15:13:30.702Z,7.57
2017-12-04T15:15:56.649Z,7.60
2017-12-04T15:18:22.580Z,7.51
2017-12-04T15:20:48.528Z,7.24
2017-12-04T15:23:14.594Z,7.20
2017-12-04T15:25:40.547Z,7.24
2017-12-04T15:28:06.496Z,7.47
2017-12-04T15:30:32.417Z,7.37
2017-12-04T15:32:58.374Z,7.50
2017-12-04T15:35:24.325Z,7.46
2017-12-04T15:37:50.252Z,7.44
2017-12-04T15:40:16.196Z,7.33
2017-12-04T15:42:42.123Z,7.46
2017-12-04T15:45:08.106Z,7.53
2017-12-04T15:47:34.043Z,7.43
2017-12-04T15:50:00.069Z,7.34
2017-12-04T15:52:26.006Z,7.29
2017-12-04T15:54:51.953Z,7.38
2017-12-04T15:57:17.898Z,7.43
2017-12-04T15:59:43.856Z,7.41
2017-12-04T16:02:09.787Z,7.58
2017-12-04T16:04:35.748Z,7.46
2017-12-04T16:07:01.679Z,7.46
2017-12-04T16:09:27.604Z,7.50
2017-12-04T16:11:53.530Z,7.55
2017-12-04T16:14:19.481Z,7.51
2017-12-04T16:16:45.428Z,7.53
2017-12-04T16:19:11.359Z,7.42
2017-12-04T16:21:37.293Z,7.42
2017-12-04T16:24:03.259Z,7.55
2017-12-04T16:26:29.215Z,7.49
2017-12-04T16:28:55.158Z,7.52
2017-12-04T16:31:21.082Z,7.49
2017-12-04T16:33:47.031Z,7.60
2017-12-04T16:36:12.963Z,7.59
2017-12-04T16:38:38.910Z,7.64
2017-12-04T16:41:04.859Z,7.78
2017-12-04T16:43:30.814Z,7.72
2017-12-04T16:45:56.740Z,7.66
2017-12-04T16:48:22.727Z,7.59
2017-12-04T16:50:48.665Z,7.52
2017-12-04T16:53:14.595Z,7.47
2017-12-04T16:55:40.522Z,7.33
2017-12-04T16:58:06.454Z,7.44
2017-12-04T17:00:32.398Z,7.40
2017-12-04T17:02:58.342Z,7.56
2017-12-04T17:05:24.291Z,7.49
2017-12-04T17:07:50.303Z,7.58
2017-12-04T17:10:16.263Z,7.64
2017-12-04T17:12:42.188Z,7.48
2017-12-04T17:15:08.114Z,7.65
2017-12-04T17:17:34.031Z,7.48
2017-12-04T17:32:31.118Z,7.39
2017-12-04T17:34:57.062Z,7.65
2017-12-04T17:37:22.998Z,7.57
2017-12-04T17:39:48.928Z,7.68
2017-12-04T17:42:14.860Z,7.60
2017-12-04T17:44:40.788Z,7.45
2017-12-04T17:47:06.716Z,7.49
2017-12-04T17:49:32.675Z,7.52
2017-12-04T17:51:58.605Z,7.48
2017-12-04T17:54:24.539Z,7.50
2017-12-04T17:56:50.571Z,7.37
2017-12-04T17:59:16.512Z,7.50
2017-12-04T18:01:42.442Z,7.38
2017-12-04T18:04:08.367Z,7.43
2017-12-04T18:06:34.322Z,7.56
2017-12-04T18:09:00.252Z,7.50
2017-12-04T18:11:26.186Z,7.42
2017-12-04T18:13:52.128Z,7.41
2017-12-04T18:16:18.052Z,7.50
2017-12-04T18:18:43.976Z,7.56
2017-12-04T18:21:09.932Z,7.57
2017-12-04T18:23:35.915Z,7.63
2017-12-04T18:26:01.856Z,7.57
2017-12-04T18:28:27.806Z,7.60
2017-12-04T18:30:53.738Z,7.62
2017-12-04T18:33:19.656Z,7.45
2017-12-04T18:35:45.600Z,7.50
2017-12-04T18:38:11.552Z,7.79
2017-12-04T18:40:37.503Z,7.93
2017-12-04T18:43:03.441Z,7.98
2017-12-04T18:45:29.400Z,8.09
2017-12-04T18:47:55.322Z,8.17
2017-12-04T18:50:21.263Z,8.05
2017-12-04T18:52:47.196Z,8.07
2017-12-04T18:55:13.143Z,8.07
2017-12-04T18:57:40.140Z,8.05
2017-12-04T19:00:06.162Z,8.18
2017-12-04T19:02:32.106Z,8.20
2017-12-04T19:04:58.030Z,8.15
2017-12-04T19:07:23.978Z,8.17
2017-12-04T19:09:49.908Z,8.21
2017-12-04T19:12:15.850Z,8.20
2017-12-04T19:14:41.918Z,8.20
2017-12-04T19:17:07.854Z,8.30
2017-12-04T19:19:33.864Z,8.38
2017-12-04T19:21:59.791Z,8.16
2017-12-04T19:24:25.716Z,8.08
2017-12-04T19:26:51.655Z,8.09
2017-12-04T19:29:17.590Z,7.96
2017-12-04T19:31:43.532Z,8.01
2017-12-04T19:34:09.476Z,7.87
2017-12-04T19:36:35.423Z,7.85
2017-12-04T19:39:01.352Z,8.24
2017-12-04T19:41:27.316Z,8.32
2017-12-04T19:43:53.270Z,8.37
2017-12-04T19:46:19.318Z,8.39
2017-12-04T19:48:45.259Z,8.32
2017-12-04T19:51:11.206Z,8.29
2017-12-04T19:53:37.176Z,8.30
2017-12-04T19:56:03.103Z,8.32
2017-12-04T19:58:29.030Z,8.27
2017-12-04T20:00:54.964Z,8.20
2017-12-04T20:03:20.894Z,8.20
2017-12-04T20:05:46.846Z,8.15
2017-12-04T20:08:12.776Z,8.00
2017-12-04T20:10:38.710Z,8.00
2017-12-04T20:13:04.645Z,8.04
2017-12-04T20:15:30.580Z,7.94
2017-12-04T20:17:56.578Z,8.13
2017-12-04T20:20:22.697Z,8.05
2017-12-04T20:22:48.634Z,8.18
2017-12-04T20:25:14.573Z,8.08
2017-12-04T20:27:40.505Z,7.96
2017-12-04T20:30:06.477Z,7.87
2017-12-04T20:32:32.410Z,7.90
2017-12-04T20:34:58.348Z,7.99
2017-12-04T20:37:24.404Z,7.92
2017-12-04T20:39:50.326Z,8.19
2017-12-04T20:42:16.290Z,8.14
2017-12-04T20:44:42.224Z,8.14
2017-12-04T20:47:08.169Z,8.05
2017-12-04T20:49:34.082Z,8.04
2017-12-04T20:52:00.022Z,8.10
2017-12-04T20:54:25.976Z,7.85
2017-12-04T20:56:51.909Z,7.89
2017-12-04T20:59:18.600Z,7.79
2017-12-04T21:01:44.542Z,7.99
2017-12-04T21:04:10.544Z,7.89
2017-12-04T21:06:36.480Z,7.87
2017-12-04T21:09:02.423Z,7.88
2017-12-04T21:11:28.388Z,7.79
2017-12-04T21:13:54.430Z,7.75
2017-12-04T21:16:20.388Z,7.77
2017-12-04T21:18:46.354Z,7.70
2017-12-04T21:21:12.298Z,7.74
2017-12-04T21:23:38.228Z,7.77
2017-12-04T21:26:04.156Z,7.75
2017-12-04T21:28:30.080Z,7.63
2017-12-04T21:30:56.027Z,7.58
2017-12-04T21:33:21.980Z,7.77
2017-12-04T21:35:47.910Z,7.75
2017-12-04T21:38:13.831Z,7.67
2017-12-04T21:40:39.804Z,7.54
2017-12-04T21:43:05.740Z,7.81
2017-12-04T21:45:31.724Z,7.63
2017-12-04T21:47:57.644Z,7.75
2017-12-04T21:50:23.578Z,7.59
2017-12-04T21:52:49.539Z,7.66
2017-12-04T21:55:15.471Z,7.66
2017-12-04T21:57:41.468Z,7.82
2017-12-04T22:00:07.428Z,7.73
2017-12-04T22:02:33.366Z,7.76
2017-12-04T22:04:59.294Z,7.47
2017-12-04T22:07:25.244Z,7.73
2017-12-04T22:09:51.208Z,7.58
2017-12-04T22:12:17.160Z,7.75
2017-12-04T22:14:43.080Z,7.88
2017-12-04T22:17:09.000Z,7.99
2017-12-04T22:19:34.938Z,7.86
2017-12-04T22:22:00.854Z,7.72
2017-12-04T22:24:26.774Z,7.66
2017-12-04T22:26:52.727Z,7.67
2017-12-04T22:29:18.650Z,7.59
2017-12-04T22:31:44.573Z,7.71
2017-12-04T22:34:10.505Z,7.89
2017-12-04T22:36:36.457Z,7.94
2017-12-04T22:39:02.404Z,7.77
2017-12-04T22:41:28.339Z,7.72
2017-12-04T22:43:54.279Z,7.55
2017-12-04T22:46:20.202Z,7.75
2017-12-04T22:48:46.137Z,7.83
2017-12-04T22:51:12.071Z,7.77
2017-12-04T22:53:38.009Z,7.69
2017-12-04T22:56:03.932Z,7.82
2017-12-04T22:58:29.879Z,7.72
2017-12-04T23:00:56.644Z,7.78
2017-12-04T23:03:22.574Z,7.94
2017-12-04T23:05:48.501Z,7.74
2017-12-04T23:08:14.451Z,7.83
2017-12-04T23:10:40.978Z,8.03
2017-12-04T23:13:06.924Z,7.99
2017-12-04T23:15:32.860Z,8.00
2017-12-04T23:17:58.781Z,7.94
2017-12-04T23:20:24.731Z,7.96
2017-12-04T23:22:50.674Z,7.98
2017-12-04T23:25:16.596Z,8.03
2017-12-04T23:27:42.525Z,7.98
2017-12-04T23:30:08.469Z,7.81
2017-12-04T23:32:34.423Z,7.95
2017-12-04T23:35:00.350Z,7.86
2017-12-04T23:37:26.279Z,7.72
2017-12-04T23:39:52.215Z,7.88
2017-12-04T23:42:18.143Z,7.89
2017-12-04T23:44:44.077Z,7.84
2017-12-04T23:47:10.024Z,7.79
2017-12-04T23:49:35.949Z,7.81
2017-12-04T23:52:01.889Z,7.90
2017-12-04T23:54:27.828Z,7.89
2017-12-04T23:56:53.749Z,7.92
2017-12-04T23:59:19.864Z,7.73
